createdAt,value
2019-04-11T00:02:14.816Z,9.00
2019-04-11T00:04:44.190Z,10.23
2019-04-11T00:07:14.239Z,9.45
2019-04-11T00:09:43.490Z,10.50
2019-04-11T00:12:12.660Z,9.78
2019-04-11T00:14:42.164Z,11.68
2019-04-11T00:17:11.941Z,9.68
2019-04-11T00:19:41.147Z,10.48
2019-04-11T00:22:11.092Z,10.82
2019-04-11T00:24:40.369Z,11.25
2019-04-11T00:27:09.513Z,11.93
2019-04-11T00:29:38.723Z,12.98
2019-04-11T00:32:09.300Z,12.43
2019-04-11T00:34:39.351Z,13.25
2019-04-11T00:37:08.697Z,11.15
2019-04-11T00:39:37.763Z,11.12
2019-04-11T00:42:06.867Z,8.13
2019-04-11T00:44:36.017Z,11.93
2019-04-11T00:47:05.123Z,11.03
2019-04-11T00:49:34.647Z,10.82
2019-04-11T00:52:04.552Z,10.55
2019-04-11T00:54:33.777Z,10.88
2019-04-11T00:57:02.951Z,11.85
2019-04-11T00:59:32.242Z,11.38
2019-04-11T01:02:01.458Z,11.83
2019-04-11T01:04:30.672Z,11.15
2019-04-11T01:07:00.700Z,12.55
2019-04-11T01:09:30.573Z,11.63
2019-04-11T01:12:00.480Z,11.68
2019-04-11T01:14:29.975Z,12.10
2019-04-11T01:16:59.114Z,13.03
2019-04-11T01:19:28.991Z,12.80
2019-04-11T01:21:59.479Z,11.38
2019-04-11T01:24:28.710Z,8.43
2019-04-11T01:26:57.840Z,11.18
2019-04-11T01:29:27.329Z,10.68
2019-04-11T01:32:02.233Z,12.30
2019-04-11T01:34:31.385Z,12.40
2019-04-11T01:37:01.598Z,11.35
2019-04-11T01:39:41.636Z,10.75
2019-04-11T01:42:11.145Z,12.90
2019-04-11T01:44:41.014Z,12.35
2019-04-11T01:47:12.935Z,9.85
2019-04-11T01:49:42.081Z,12.78
2019-04-11T01:52:11.917Z,12.55
2019-04-11T01:54:41.207Z,9.98
2019-04-11T01:57:10.313Z,12.25
2019-04-11T01:59:39.659Z,11.60
2019-04-11T02:02:46.485Z,10.88
2019-04-11T02:05:27.547Z,11.18
2019-04-11T02:07:56.671Z,12.73
2019-04-11T02:10:26.565Z,12.35
2019-04-11T02:12:57.454Z,12.18
2019-04-11T02:15:28.260Z,11.93
2019-04-11T02:17:57.397Z,11.83
2019-04-11T02:20:27.159Z,13.00
2019-04-11T02:23:07.775Z,11.03
2019-04-11T02:25:45.286Z,12.10
2019-04-11T02:28:16.825Z,9.80
2019-04-11T02:30:48.783Z,11.50
2019-04-11T02:33:18.452Z,10.70
2019-04-11T02:35:49.376Z,9.50
2019-04-11T02:38:19.097Z,11.12
2019-04-11T02:40:49.852Z,9.60
2019-04-11T02:43:20.420Z,11.95
2019-04-11T02:45:58.220Z,11.57
2019-04-11T02:48:20.873Z,13.48
2019-04-11T02:50:50.915Z,12.15
2019-04-11T02:53:21.276Z,10.82
2019-04-11T02:55:53.903Z,9.80
2019-04-11T02:58:24.940Z,9.55
2019-04-11T03:00:55.936Z,9.10
2019-04-11T03:03:25.283Z,12.75
2019-04-11T03:05:55.880Z,10.48
2019-04-11T03:08:26.996Z,11.70
2019-04-11T03:10:57.582Z,9.88
2019-04-11T03:13:27.285Z,10.45
2019-04-11T03:16:10.163Z,15.08
2019-04-11T03:18:46.058Z,12.28
2019-04-11T03:21:05.693Z,12.33
2019-04-11T03:23:30.919Z,12.00
2019-04-11T03:26:00.709Z,9.38
2019-04-11T03:28:31.447Z,10.03
2019-04-11T03:31:33.076Z,11.55
2019-04-11T03:38:56.983Z,13.15
2019-04-11T03:41:23.507Z,11.85
2019-04-11T03:43:48.578Z,15.23
2019-04-11T03:46:25.050Z,15.48
2019-04-11T03:48:51.118Z,16.20
2019-04-11T03:51:11.061Z,11.90
2019-04-11T03:53:41.120Z,11.85
2019-04-11T03:56:12.115Z,10.75
2019-04-11T03:58:42.301Z,12.95
2019-04-11T04:01:14.049Z,9.95
2019-04-11T04:03:44.687Z,13.22
2019-04-11T04:06:14.839Z,13.65
2019-04-11T04:08:44.512Z,13.95
2019-04-11T04:11:19.073Z,12.80
2019-04-11T04:14:08.000Z,13.10
2019-04-11T04:16:48.266Z,12.28
2019-04-11T04:19:30.682Z,12.15
2019-04-11T04:22:13.472Z,9.23
2019-04-11T04:24:44.779Z,11.33
2019-04-11T04:27:15.438Z,10.32
2019-04-11T04:29:49.018Z,14.40
2019-04-11T04:32:16.334Z,15.20
2019-04-11T04:34:46.420Z,12.18
2019-04-11T04:37:18.135Z,11.88
2019-04-11T04:39:47.984Z,9.53
2019-04-11T04:42:24.903Z,12.58
2019-04-11T04:44:49.320Z,15.50
2019-04-11T04:47:25.044Z,16.17
2019-04-11T04:49:52.151Z,11.20
2019-04-11T04:52:21.453Z,13.15
2019-04-11T04:54:52.706Z,14.85
2019-04-11T04:57:21.843Z,12.05
2019-04-11T04:59:50.991Z,14.55
2019-04-11T05:02:20.698Z,11.57
2019-04-11T05:04:50.036Z,14.47
2019-04-11T05:07:19.497Z,14.45
2019-04-11T05:09:50.138Z,17.02
2019-04-11T05:12:20.614Z,14.38
2019-04-11T05:14:49.980Z,11.88
2019-04-11T05:17:19.502Z,12.53
2019-04-11T05:19:48.829Z,12.60
2019-04-11T05:22:19.000Z,9.43
2019-04-11T05:24:48.128Z,12.28
2019-04-11T05:27:17.542Z,29.05
2019-04-11T05:29:46.644Z,19.85
2019-04-11T05:32:15.773Z,29.18
2019-04-11T05:34:45.639Z,13.95
2019-04-11T05:37:15.336Z,13.25
2019-04-11T05:39:44.974Z,31.15
2019-04-11T05:42:17.758Z,13.22
2019-04-11T05:44:45.177Z,16.50
2019-04-11T05:47:18.173Z,10.98
2019-04-11T05:49:56.872Z,13.05
2019-04-11T05:52:27.403Z,12.60
2019-04-11T05:55:00.711Z,15.00
2019-04-11T05:57:35.201Z,16.20
2019-04-11T06:00:00.912Z,17.25
2019-04-11T06:02:39.572Z,26.10
2019-04-11T06:05:24.535Z,28.50
2019-04-11T06:07:59.923Z,20.50
2019-04-11T06:10:33.809Z,26.45
2019-04-11T06:13:28.784Z,21.50
2019-04-11T06:16:02.341Z,38.23
2019-04-11T06:18:52.147Z,35.20
2019-04-11T06:21:31.746Z,26.48
2019-04-11T06:24:25.998Z,22.75
2019-04-11T06:27:15.400Z,18.45
2019-04-11T06:30:10.100Z,17.98
2019-04-11T06:32:56.800Z,15.30
2019-04-11T06:35:32.399Z,13.50
2019-04-11T06:38:24.670Z,15.80
2019-04-11T06:41:02.128Z,14.18
2019-04-11T06:43:43.031Z,19.85
2019-04-11T06:46:26.105Z,13.68
2019-04-11T06:49:03.052Z,14.15
2019-04-11T06:51:37.817Z,17.45
2019-04-11T06:54:17.501Z,15.40
2019-04-11T06:56:48.138Z,12.95
2019-04-11T06:59:20.720Z,23.60
2019-04-11T07:01:50.865Z,18.87
2019-04-11T07:04:23.704Z,13.68
2019-04-11T07:06:54.430Z,13.85
2019-04-11T07:09:51.366Z,16.45
2019-04-11T07:12:45.466Z,14.18
2019-04-11T07:15:52.840Z,18.40
2019-04-11T07:18:48.414Z,28.07
2019-04-11T07:21:17.638Z,28.87
2019-04-11T07:24:05.351Z,14.58
2019-04-11T07:26:47.840Z,12.00
2019-04-11T07:29:34.568Z,13.32
2019-04-11T07:32:29.918Z,17.82
2019-04-11T07:37:53.172Z,11.05
2019-04-11T07:40:56.407Z,11.53
2019-04-11T07:43:29.212Z,10.25
2019-04-11T07:46:25.061Z,12.45
2019-04-11T07:49:08.229Z,12.65
2019-04-11T07:51:41.349Z,12.95
2019-04-11T07:54:18.228Z,9.90
2019-04-11T07:57:06.431Z,12.18
2019-04-11T08:00:00.458Z,10.78
2019-04-11T08:02:48.535Z,10.15
2019-04-11T08:05:51.807Z,10.63
2019-04-11T08:08:45.413Z,12.07
2019-04-11T08:11:25.615Z,11.08
2019-04-11T08:14:28.755Z,9.75
2019-04-11T08:17:07.134Z,17.80
2019-04-11T08:19:53.807Z,13.10
2019-04-11T08:22:45.319Z,11.20
2019-04-11T08:25:33.472Z,14.13
2019-04-11T08:28:07.833Z,11.25
2019-04-11T08:30:55.210Z,13.60
2019-04-11T08:33:24.927Z,11.30
2019-04-11T08:36:13.795Z,12.37
2019-04-11T08:38:42.851Z,9.95
2019-04-11T08:41:34.025Z,10.25
2019-04-11T08:44:34.346Z,11.83
2019-04-11T08:47:07.907Z,10.50
2019-04-11T08:49:50.138Z,9.85
2019-04-11T08:52:50.317Z,13.38
2019-04-11T08:55:43.034Z,11.25
2019-04-11T08:58:09.571Z,19.60
2019-04-11T09:00:51.200Z,25.48
2019-04-11T09:03:42.461Z,10.00
2019-04-11T09:06:14.713Z,10.28
2019-04-11T09:09:11.194Z,10.85
2019-04-11T09:11:47.004Z,9.03
2019-04-11T09:14:41.324Z,10.38
2019-04-11T09:17:12.941Z,9.65
2019-04-11T09:20:16.388Z,11.35
2019-04-11T09:22:50.367Z,11.10
2019-04-11T09:25:37.118Z,8.95
2019-04-11T09:28:25.331Z,7.85
2019-04-11T09:31:17.053Z,12.58
2019-04-11T09:34:04.007Z,9.05
2019-04-11T09:36:51.355Z,9.00
2019-04-11T09:39:45.642Z,9.60
2019-04-11T09:42:32.520Z,11.80
2019-04-11T09:45:19.660Z,8.08
2019-04-11T09:48:12.480Z,12.10
2019-04-11T09:50:59.363Z,8.85
2019-04-11T09:53:30.272Z,14.38
2019-04-11T09:56:21.443Z,8.70
2019-04-11T09:58:51.895Z,8.33
2019-04-11T10:01:38.754Z,9.80
2019-04-11T10:04:08.871Z,8.68
2019-04-11T10:07:06.036Z,12.50
2019-04-11T10:10:00.299Z,9.40
2019-04-11T10:12:46.817Z,9.28
2019-04-11T10:15:18.868Z,8.80
2019-04-11T10:18:05.447Z,10.98
2019-04-11T10:20:35.067Z,10.85
2019-04-11T10:23:22.917Z,11.15
2019-04-11T10:25:56.007Z,14.07
2019-04-11T10:29:00.243Z,10.40
2019-04-11T10:31:30.965Z,8.18
2019-04-11T10:34:21.685Z,8.18
2019-04-11T10:36:56.888Z,8.88
2019-04-11T10:39:54.030Z,8.75
2019-04-11T10:42:26.307Z,9.13
2019-04-11T10:45:31.034Z,10.40
2019-04-11T10:48:05.471Z,8.08
2019-04-11T10:51:02.894Z,9.80
2019-04-11T10:53:33.285Z,10.55
2019-04-11T10:56:30.630Z,11.63
2019-04-11T10:59:01.708Z,9.83
2019-04-11T11:01:50.629Z,7.45
2019-04-11T11:04:48.501Z,6.50
2019-04-11T11:07:24.393Z,9.68
2019-04-11T11:10:09.220Z,10.63
2019-04-11T11:12:49.753Z,8.70
2019-04-11T11:15:41.880Z,12.93
2019-04-11T11:19:03.266Z,13.00
2019-04-11T11:24:00.693Z,11.05
2019-04-11T11:26:38.894Z,12.07
2019-04-11T11:29:45.481Z,9.15
2019-04-11T11:32:31.845Z,10.00
2019-04-11T11:35:22.430Z,12.95
2019-04-11T11:38:01.830Z,11.80
2019-04-11T11:40:58.865Z,11.93
2019-04-11T11:43:33.081Z,9.48
2019-04-11T11:46:25.615Z,12.85
2019-04-11T11:49:12.307Z,11.73
2019-04-11T11:52:06.774Z,11.88
2019-04-11T11:54:37.803Z,11.00
2019-04-11T11:57:14.977Z,12.98
2019-04-11T11:59:46.256Z,10.65
2019-04-11T12:02:21.503Z,11.70
2019-04-11T12:05:15.845Z,11.73
2019-04-11T12:07:51.453Z,9.75
2019-04-11T12:10:45.882Z,10.68
2019-04-11T12:13:40.232Z,12.17
2019-04-11T12:16:21.883Z,8.85
2019-04-11T12:19:02.696Z,10.43
2019-04-11T12:21:33.268Z,10.13
2019-04-11T12:24:30.503Z,11.38
2019-04-11T12:27:18.606Z,10.85
2019-04-11T12:30:07.917Z,11.30
2019-04-11T12:32:41.059Z,11.40
2019-04-11T12:35:30.648Z,12.07
2019-04-11T12:38:05.384Z,11.03
2019-04-11T12:43:20.827Z,12.75
2019-04-11T12:46:07.417Z,9.68
2019-04-11T12:48:43.239Z,10.55
2019-04-11T12:51:37.565Z,10.55
2019-04-11T12:54:16.549Z,11.43
2019-04-11T12:57:22.893Z,8.65
2019-04-11T12:59:58.258Z,15.23
2019-04-11T13:02:46.342Z,12.28
2019-04-11T13:05:16.820Z,9.53
2019-04-11T13:08:14.013Z,10.13
2019-04-11T13:10:43.231Z,8.95
2019-04-11T13:13:29.523Z,9.80
2019-04-11T13:16:11.970Z,8.68
2019-04-11T13:18:59.813Z,8.23
2019-04-11T13:21:33.883Z,10.78
2019-04-11T13:24:20.775Z,10.85
2019-04-11T13:27:08.920Z,13.35
2019-04-11T13:30:03.175Z,17.32
2019-04-11T13:32:50.272Z,12.70
2019-04-11T13:35:36.413Z,9.88
2019-04-11T13:38:10.775Z,10.05
2019-04-11T13:41:01.717Z,11.55
2019-04-11T13:43:45.521Z,9.33
2019-04-11T13:46:33.646Z,10.93
2019-04-11T13:49:21.741Z,8.63
2019-04-11T13:52:18.868Z,10.05
2019-04-11T13:55:10.132Z,6.12
2019-04-11T13:57:58.253Z,7.30
2019-04-11T14:00:42.080Z,12.75
2019-04-11T14:03:42.245Z,8.38
2019-04-11T14:06:30.755Z,10.95
2019-04-11T14:09:24.974Z,10.38
2019-04-11T14:11:58.918Z,22.75
2019-04-11T14:14:38.991Z,14.00
2019-04-11T14:17:27.104Z,7.67
2019-04-11T14:20:13.930Z,8.35
2019-04-11T14:23:15.001Z,9.43
2019-04-11T14:26:15.891Z,7.95
2019-04-11T14:28:48.256Z,5.37
2019-04-11T14:31:29.528Z,9.58
2019-04-11T14:34:04.493Z,8.05
2019-04-11T14:37:01.432Z,7.20
2019-04-11T14:39:33.564Z,7.30
2019-04-11T14:42:20.616Z,6.85
2019-04-11T14:44:50.226Z,5.80
2019-04-11T14:47:44.495Z,7.35
2019-04-11T14:50:13.734Z,7.50
2019-04-11T14:52:59.758Z,7.03
2019-04-11T14:55:28.890Z,5.67
2019-04-11T14:58:15.479Z,9.15
2019-04-11T15:00:44.604Z,7.65
2019-04-11T15:03:32.684Z,9.63
2019-04-11T15:06:31.396Z,8.55
2019-04-11T15:09:34.650Z,6.33
2019-04-11T15:12:10.590Z,8.45
2019-04-11T15:15:13.709Z,7.12
2019-04-11T15:17:42.848Z,9.20
2019-04-11T15:20:34.781Z,9.20
2019-04-11T15:23:14.160Z,8.93
2019-04-11T15:26:08.865Z,7.12
2019-04-11T15:29:13.829Z,8.33
2019-04-11T15:32:09.411Z,8.50
2019-04-11T15:34:53.140Z,7.67
2019-04-11T15:37:47.580Z,10.82
2019-04-11T15:40:34.271Z,9.15
2019-04-11T15:43:22.370Z,7.70
2019-04-11T15:46:05.920Z,6.95
2019-04-11T15:48:57.234Z,8.50
2019-04-11T15:51:35.156Z,7.33
2019-04-11T15:54:26.778Z,8.13
2019-04-11T15:57:16.690Z,10.70
2019-04-11T16:00:02.007Z,10.20
2019-04-11T16:02:52.970Z,13.30
2019-04-11T16:05:50.011Z,7.15
2019-04-11T16:08:44.651Z,6.70
2019-04-11T16:11:51.605Z,11.78
2019-04-11T16:14:24.308Z,8.85
2019-04-11T16:17:13.829Z,9.83
2019-04-11T16:19:57.485Z,7.85
2019-04-11T16:22:44.529Z,6.83
2019-04-11T16:25:29.203Z,6.58
2019-04-11T16:28:16.417Z,7.78
2019-04-11T16:30:53.753Z,7.45
2019-04-11T16:33:40.589Z,6.65
2019-04-11T16:36:35.165Z,8.83
2019-04-11T16:39:25.089Z,11.23
2019-04-11T16:42:07.837Z,7.87
2019-04-11T16:44:55.714Z,8.98
2019-04-11T16:47:44.025Z,8.53
2019-04-11T16:50:13.179Z,8.53
2019-04-11T16:52:42.323Z,7.62
2019-04-11T16:55:11.459Z,5.50
2019-04-11T16:57:43.834Z,8.60
2019-04-11T17:00:13.189Z,5.25
2019-04-11T17:02:42.355Z,8.53
2019-04-11T17:05:11.483Z,8.85
2019-04-11T17:07:59.783Z,9.48
2019-04-11T17:10:46.487Z,8.60
2019-04-11T17:13:15.691Z,8.25
2019-04-11T17:15:44.883Z,8.30
2019-04-11T17:18:14.001Z,7.15
2019-04-11T17:20:43.141Z,9.00
2019-04-11T17:23:12.296Z,8.63
2019-04-11T17:25:41.438Z,8.13
2019-04-11T17:28:10.613Z,9.33
2019-04-11T17:30:39.820Z,8.58
2019-04-11T17:33:08.973Z,9.53
2019-04-11T17:35:38.188Z,8.03
2019-04-11T17:38:08.096Z,8.23
2019-04-11T17:40:39.501Z,10.38
2019-04-11T17:43:08.284Z,6.58
2019-04-11T17:45:37.516Z,6.53
2019-04-11T17:48:06.677Z,7.42
2019-04-11T17:50:35.955Z,7.37
2019-04-11T17:53:05.077Z,4.90
2019-04-11T17:55:34.241Z,8.20
2019-04-11T17:58:03.373Z,6.25
2019-04-11T18:00:36.102Z,7.17
2019-04-11T18:03:05.512Z,5.97
2019-04-11T18:05:34.646Z,7.78
2019-04-11T18:08:03.893Z,5.87
2019-04-11T18:10:33.011Z,6.70
2019-04-11T18:13:02.193Z,5.62
2019-04-11T18:15:31.843Z,6.47
2019-04-11T18:18:03.154Z,6.35
2019-04-11T18:20:31.895Z,6.17
2019-04-11T18:23:01.050Z,6.30
2019-04-11T18:25:30.182Z,5.97
2019-04-11T18:27:59.367Z,6.53
2019-04-11T18:30:28.541Z,6.30
2019-04-11T18:32:57.688Z,4.75
2019-04-11T18:35:26.830Z,4.95
2019-04-11T18:37:55.941Z,3.42
2019-04-11T18:40:25.284Z,7.15
2019-04-11T18:42:54.426Z,4.83
2019-04-11T18:45:23.556Z,5.25
2019-04-11T18:47:52.685Z,4.47
2019-04-11T18:50:23.033Z,4.70
2019-04-11T18:52:52.642Z,3.70
2019-04-11T18:55:21.770Z,3.72
2019-04-11T18:57:50.928Z,6.37
2019-04-11T19:00:21.077Z,5.12
2019-04-11T19:02:50.225Z,4.80
2019-04-11T19:05:28.674Z,3.20
2019-04-11T19:07:50.372Z,3.17
2019-04-11T19:10:20.210Z,5.03
2019-04-11T19:12:49.333Z,4.12
2019-04-11T19:15:18.553Z,3.92
2019-04-11T19:17:47.708Z,4.10
2019-04-11T19:20:19.152Z,3.02
2019-04-11T19:22:49.026Z,3.60
2019-04-11T19:25:18.183Z,4.08
2019-04-11T19:27:50.448Z,3.27
2019-04-11T19:30:18.313Z,3.33
2019-04-11T19:32:47.461Z,2.72
2019-04-11T19:35:16.638Z,4.12
2019-04-11T19:37:45.767Z,3.65
2019-04-11T19:40:16.419Z,2.65
2019-04-11T19:42:48.879Z,4.47
2019-04-11T19:45:16.926Z,3.58
2019-04-11T19:47:51.454Z,4.12
2019-04-11T19:50:18.445Z,3.17
2019-04-11T19:52:47.579Z,2.87
2019-04-11T19:55:34.686Z,3.50
2019-04-11T19:58:04.073Z,3.02
2019-04-11T20:00:33.733Z,3.98
2019-04-11T20:03:02.842Z,4.10
2019-04-11T20:05:32.297Z,5.37
2019-04-11T20:08:01.396Z,4.40
2019-04-11T20:10:31.346Z,8.68
2019-04-11T20:13:01.902Z,3.67
2019-04-11T20:15:36.864Z,5.22
2019-04-11T20:18:02.325Z,6.50
2019-04-11T20:20:31.439Z,4.30
2019-04-11T20:23:00.583Z,2.87
2019-04-11T20:25:29.713Z,3.47
2019-04-11T20:27:58.981Z,6.00
2019-04-11T20:30:28.123Z,10.03
2019-04-11T20:32:57.281Z,4.65
2019-04-11T20:35:29.193Z,4.37
2019-04-11T20:37:57.363Z,6.80
2019-04-11T20:40:26.463Z,8.53
2019-04-11T20:42:55.596Z,4.42
2019-04-11T20:45:28.481Z,6.17
2019-04-11T20:47:59.858Z,4.83
2019-04-11T20:50:28.151Z,2.62
2019-04-11T20:53:00.449Z,7.70
2019-04-11T20:55:28.306Z,4.33
2019-04-11T20:57:57.465Z,5.58
2019-04-11T21:00:26.580Z,7.50
2019-04-11T21:02:58.141Z,6.80
2019-04-11T21:05:30.490Z,11.22
2019-04-11T21:07:57.587Z,4.58
2019-04-11T21:10:26.732Z,3.33
2019-04-11T21:12:55.855Z,2.58
2019-04-11T21:15:24.995Z,2.95
2019-04-11T21:17:56.067Z,3.85
2019-04-11T21:20:25.089Z,2.42
2019-04-11T21:22:54.544Z,2.92
2019-04-11T21:25:26.099Z,2.10
2019-04-11T21:27:56.751Z,3.22
2019-04-11T21:30:25.519Z,4.10
2019-04-11T21:32:54.663Z,2.70
2019-04-11T21:35:23.789Z,3.40
2019-04-11T21:37:52.907Z,3.72
2019-04-11T21:40:22.039Z,3.47
2019-04-11T21:42:51.166Z,2.77
2019-04-11T21:45:20.357Z,3.58
2019-04-11T21:47:49.510Z,3.70
2019-04-11T21:50:18.659Z,3.52
2019-04-11T21:52:47.820Z,3.00
2019-04-11T21:55:16.948Z,4.20
2019-04-11T21:57:48.890Z,2.10
2019-04-11T22:00:23.540Z,3.40
2019-04-11T22:02:54.496Z,3.55
2019-04-11T22:05:23.704Z,2.50
2019-04-11T22:07:52.883Z,2.47
2019-04-11T22:10:22.014Z,4.75
2019-04-11T22:12:51.165Z,2.30
2019-04-11T22:15:20.310Z,2.92
2019-04-11T22:17:49.419Z,3.87
2019-04-11T22:20:18.583Z,2.00
2019-04-11T22:22:47.721Z,3.37
2019-04-11T22:25:16.868Z,3.52
2019-04-11T22:27:46.028Z,3.75
2019-04-11T22:30:17.820Z,3.50
2019-04-11T22:32:52.347Z,3.40
2019-04-11T22:35:21.495Z,2.87
2019-04-11T22:37:50.612Z,3.27
2019-04-11T22:40:19.719Z,5.03
2019-04-11T22:42:48.889Z,4.00
2019-04-11T22:45:18.056Z,2.77
2019-04-11T22:47:47.215Z,3.20
2019-04-11T22:50:16.353Z,3.77
2019-04-11T22:52:45.906Z,2.27
2019-04-11T22:55:15.066Z,3.70
2019-04-11T22:57:44.366Z,2.52
2019-04-11T23:00:15.327Z,3.55
2019-04-11T23:03:04.204Z,2.40
2019-04-11T23:05:33.380Z,2.75
2019-04-11T23:08:02.915Z,4.25
2019-04-11T23:10:32.172Z,2.15
2019-04-11T23:13:01.304Z,2.10
2019-04-11T23:15:30.455Z,3.35
2019-04-11T23:17:59.582Z,3.35
2019-04-11T23:20:28.735Z,2.60
2019-04-11T23:22:58.024Z,3.42
2019-04-11T23:25:27.164Z,4.08
2019-04-11T23:27:56.280Z,3.65
2019-04-11T23:30:25.456Z,4.70
2019-04-11T23:32:54.586Z,4.12
2019-04-11T23:35:23.725Z,3.72
2019-04-11T23:37:52.861Z,2.62
2019-04-11T23:40:22.639Z,2.77
2019-04-11T23:42:51.834Z,4.72
2019-04-11T23:45:24.199Z,2.90
2019-04-11T23:47:54.309Z,3.42
2019-04-11T23:50:25.281Z,2.80
2019-04-11T23:52:56.997Z,4.47
2019-04-11T23:55:25.244Z,5.25
2019-04-11T23:57:54.343Z,4.10
